Terminal Aerodrome Forecast
Issued by NWS

Home | Current Version | Previous Version | Graphics & Text | Print | Product List | Glossary On
Versions: 1 2 3 4 5 6 7 8 9 10 11 12 13 14 15 16 17 18
000
FTUS43 KGRB 161500 AAB
TAFCWA
TAF AMD
KCWA 161517Z 1615/1712 11011G16KT 1 1/2SM -SN OVC020
      TEMPO 1615/1617 3/4SM -SN VV011
     FM161700 12013G20KT P6SM BKN040 OVC080
     FM161900 12015G23KT 6SM -RASN BKN020 OVC035 WS013/16040KT
     FM170300 12014G22KT 3SM -SN BKN015 OVC030 WS013/16040KT
      TEMPO 1708/1712 1SM -SN OVC012=

USA.gov is the U.S. government's official web portal to all federal, state and local government web resources and services.